Time;durP1;ratioP1;P1;durP2;ratioP2;P2;SDS_P1;SDS_P2;PMS_P1;PMS_P2;Temp;Humidity;BMP_temperature;BMP_pressure;BME280_temperature;BME280_humidity;BME280_pressure;Samples;Min_cycle;Max_cycle;Signal;HPM_P1;HPM_P2
2023/02/10 00:01:07;;;;;;;67.10;50.20;;;;;;;-0.06;100.00;103390.44;5082426;28;20016;-78
2023/02/10 00:03:33;;;;;;;67.05;48.80;;;;;;;-0.13;100.00;103399.41;5080996;28;20074;-77
2023/02/10 00:05:58;;;;;;;66.88;49.67;;;;;;;-0.20;100.00;103395.34;5083582;28;20518;-77
2023/02/10 00:08:24;;;;;;;68.47;50.33;;;;;;;-0.20;100.00;103397.03;5082299;28;20110;-76
2023/02/10 00:10:50;;;;;;;70.15;50.30;;;;;;;-0.25;100.00;103394.03;5086889;28;20035;-77
2023/02/10 00:13:16;;;;;;;66.78;50.05;;;;;;;-0.28;100.00;103409.31;5084590;28;20024;-80
2023/02/10 00:15:41;;;;;;;69.70;50.28;;;;;;;-0.32;100.00;103408.91;5085569;28;20559;-78
2023/02/10 00:18:06;;;;;;;68.30;50.45;;;;;;;-0.37;100.00;103414.63;5068044;28;20040;-77
2023/02/10 00:20:32;;;;;;;68.35;50.05;;;;;;;-0.44;100.00;103417.44;5084091;28;20027;-80
2023/02/10 00:22:57;;;;;;;68.30;50.97;;;;;;;-0.45;100.00;103420.84;5087139;28;20115;-78
2023/02/10 00:25:23;;;;;;;70.93;51.03;;;;;;;-0.45;100.00;103417.31;5083419;28;20115;-80
2023/02/10 00:27:48;;;;;;;75.60;51.95;;;;;;;-0.45;100.00;103420.84;5086430;28;20035;-77
2023/02/10 00:30:13;;;;;;;73.25;52.92;;;;;;;-0.42;100.00;103423.72;5084821;28;20063;-80
2023/02/10 00:32:40;;;;;;;71.30;52.65;;;;;;;-0.45;100.00;103425.09;5085059;28;20024;-77
2023/02/10 00:35:07;;;;;;;76.18;53.40;;;;;;;-0.48;100.00;103423.16;5085684;28;20386;-78
2023/02/10 00:37:32;;;;;;;74.93;53.47;;;;;;;-0.51;100.00;103420.28;5082686;28;20029;-77
2023/02/10 00:39:58;;;;;;;78.05;53.58;;;;;;;-0.53;100.00;103414.91;5086463;28;20086;-77
2023/02/10 00:42:23;;;;;;;72.68;53.33;;;;;;;-0.51;100.00;103417.69;5083426;28;20032;-77
2023/02/10 00:44:49;;;;;;;76.82;53.60;;;;;;;-0.54;100.00;103419.97;5086124;28;20024;-77
2023/02/10 00:47:14;;;;;;;78.60;54.33;;;;;;;-0.56;100.00;103421.53;5084197;28;20459;-79
2023/02/10 00:49:40;;;;;;;76.93;54.15;;;;;;;-0.61;100.00;103418.53;5084599;28;20125;-79
2023/02/10 00:52:05;;;;;;;77.13;54.13;;;;;;;-0.61;100.00;103417.59;5085560;28;20024;-80
2023/02/10 00:54:30;;;;;;;78.32;55.35;;;;;;;-0.62;100.00;103418.41;5083250;28;20391;-79
2023/02/10 00:56:56;;;;;;;83.13;55.42;;;;;;;-0.65;100.00;103421.63;5086823;28;20162;-79
2023/02/10 00:59:21;;;;;;;74.72;54.17;;;;;;;-0.72;100.00;103419.22;5082938;28;20357;-77
2023/02/10 01:01:47;;;;;;;77.85;53.92;;;;;;;-0.75;100.00;103424.16;5085344;28;20032;-79
2023/02/10 01:04:12;;;;;;;83.10;56.42;;;;;;;-0.79;100.00;103428.13;5083114;28;20025;-80
2023/02/10 01:06:38;;;;;;;80.50;54.97;;;;;;;-0.89;100.00;103422.88;5083973;28;20458;-79
2023/02/10 01:09:03;;;;;;;80.55;56.08;;;;;;;-0.87;100.00;103423.94;5085306;28;20480;-80
2023/02/10 01:11:29;;;;;;;78.68;55.60;;;;;;;-0.91;100.00;103437.41;5082744;28;20043;-77
2023/02/10 01:13:54;;;;;;;80.78;55.85;;;;;;;-0.94;100.00;103431.94;5086029;28;20023;-79
2023/02/10 01:16:20;;;;;;;83.30;56.10;;;;;;;-0.97;100.00;103435.16;5082824;28;20471;-77
2023/02/10 01:18:45;;;;;;;85.05;56.97;;;;;;;-0.98;100.00;103440.22;5084393;28;20154;-77
2023/02/10 01:21:14;;;;;;;87.43;57.95;;;;;;;-0.97;100.00;103442.03;5084123;28;20102;-79
2023/02/10 01:23:40;;;;;;;86.13;57.25;;;;;;;-0.93;100.00;103438.97;5083740;28;20097;-79
2023/02/10 01:26:07;;;;;;;84.35;57.67;;;;;;;-0.97;100.00;103437.75;5084890;28;20059;-80
2023/02/10 01:28:32;;;;;;;89.60;58.88;;;;;;;-1.02;100.00;103433.84;5082621;28;20031;-78
2023/02/10 01:30:58;;;;;;;86.47;59.00;;;;;;;-1.03;100.00;103449.25;5085694;28;20028;-79
2023/02/10 01:33:23;;;;;;;90.25;59.75;;;;;;;-1.04;100.00;103452.63;5082303;28;20052;-79
2023/02/10 01:35:48;;;;;;;93.28;61.78;;;;;;;-1.04;100.00;103455.22;5084978;28;20089;-77
2023/02/10 01:38:14;;;;;;;93.25;61.15;;;;;;;-1.06;100.00;103463.78;5083576;28;20048;-79
2023/02/10 01:40:39;;;;;;;90.78;60.40;;;;;;;-1.07;100.00;103459.34;5083796;28;20224;-79
2023/02/10 01:43:14;;;;;;;96.97;61.80;;;;;;;-1.10;100.00;103469.44;5083195;28;20036;-79
2023/02/10 01:45:39;;;;;;;93.43;61.47;;;;;;;-1.07;100.00;103459.34;5083440;28;20028;-79
2023/02/10 01:48:07;;;;;;;91.95;60.67;;;;;;;-1.08;100.00;103461.81;5083118;28;20432;-78
2023/02/10 01:50:40;;;;;;;96.80;63.25;;;;;;;-1.08;100.00;103464.41;5080826;28;20029;-77
2023/02/10 01:53:06;;;;;;;96.65;62.85;;;;;;;-1.10;100.00;103451.28;5084170;28;20031;-79
2023/02/10 01:55:35;;;;;;;95.57;62.80;;;;;;;-1.11;100.00;103448.53;5082198;28;20017;-77
2023/02/10 01:58:04;;;;;;;91.95;63.33;;;;;;;-1.17;100.00;103430.69;5084849;28;20077;-79
2023/02/10 02:00:30;;;;;;;93.70;62.67;;;;;;;-1.23;100.00;103428.44;5081637;28;20479;-79
2023/02/10 02:02:56;;;;;;;96.38;62.90;;;;;;;-1.28;100.00;103431.38;5085515;28;20028;-79
2023/02/10 02:05:34;;;;;;;95.00;61.92;;;;;;;-1.33;100.00;103443.03;5081803;28;20423;-79
2023/02/10 02:08:22;;;;;;;97.28;63.03;;;;;;;-1.29;100.00;103429.56;5081512;28;20032;-77
2023/02/10 02:10:53;;;;;;;93.90;62.08;;;;;;;-1.35;100.00;103421.22;5082304;28;20032;-79
2023/02/10 02:13:53;;;;;;;99.00;63.42;;;;;;;-1.31;100.00;103426.81;5084039;28;20024;-77
2023/02/10 02:16:51;;;;;;;96.55;62.72;;;;;;;-1.38;100.00;103426.09;5083876;28;20028;-78
2023/02/10 02:19:26;;;;;;;101.05;65.45;;;;;;;-1.38;100.00;103432.22;5084008;28;20036;-77
2023/02/10 02:22:10;;;;;;;99.38;64.38;;;;;;;-1.45;100.00;103435.91;5081581;28;20490;-79
2023/02/10 02:25:09;;;;;;;100.15;65.82;;;;;;;-1.37;100.00;103438.31;5082092;28;20028;-78
2023/02/10 02:27:59;;;;;;;103.10;67.03;;;;;;;-1.33;100.00;103437.84;5082169;28;20077;-78
2023/02/10 02:30:52;;;;;;;102.35;67.13;;;;;;;-1.26;100.00;103437.63;5081298;28;20025;-79
2023/02/10 02:33:24;;;;;;;100.20;67.25;;;;;;;-1.23;100.00;103438.81;5099320;28;20543;-78
2023/02/10 02:36:12;;;;;;;105.40;67.55;;;;;;;-1.23;100.00;103443.13;5081852;28;20025;-77
2023/02/10 02:38:41;;;;;;;108.60;71.15;;;;;;;-1.18;100.00;103443.53;5083837;28;20051;-79
2023/02/10 02:41:08;;;;;;;106.88;68.70;;;;;;;-1.18;100.00;103454.84;5081982;28;20483;-79
2023/02/10 02:43:34;;;;;;;110.72;70.53;;;;;;;-1.14;100.00;103454.34;5083841;28;20107;-79
2023/02/10 02:46:11;;;;;;;103.32;68.78;;;;;;;-1.15;100.00;103452.53;5081331;28;20112;-79
2023/02/10 02:48:58;;;;;;;99.63;67.05;;;;;;;-1.19;100.00;103450.44;5082005;28;20035;-77
2023/02/10 02:51:32;;;;;;;103.15;67.93;;;;;;;-1.20;100.00;103450.28;5081172;28;20031;-77
2023/02/10 02:54:09;;;;;;;103.05;70.10;;;;;;;-1.23;100.00;103446.63;5080948;28;20471;-79
2023/02/10 02:56:50;;;;;;;102.68;68.95;;;;;;;-1.25;100.00;103444.66;5081508;28;20107;-77
2023/02/10 02:59:18;;;;;;;102.22;66.90;;;;;;;-1.27;100.00;103439.34;5081937;28;20073;-79
2023/02/10 03:01:58;;;;;;;102.35;67.25;;;;;;;-1.27;100.00;103433.22;5082737;28;20028;-79
2023/02/10 03:04:28;;;;;;;107.85;68.95;;;;;;;-1.28;100.00;103428.78;5079461;28;20521;-86
2023/02/10 03:06:54;;;;;;;107.13;70.47;;;;;;;-1.31;100.00;103439.81;5084182;28;20447;-86
2023/02/10 03:09:20;;;;;;;103.85;68.53;;;;;;;-1.35;100.00;103441.97;5081326;28;20028;-86
2023/02/10 03:11:45;;;;;;;106.90;69.32;;;;;;;-1.39;100.00;103447.63;5082923;28;20032;-85
2023/02/10 03:14:11;;;;;;;105.03;69.03;;;;;;;-1.46;100.00;103443.53;5082791;28;20164;-85
2023/02/10 03:16:36;;;;;;;106.07;68.93;;;;;;;-1.48;100.00;103453.78;5081395;28;20116;-86
2023/02/10 03:19:02;;;;;;;105.10;69.45;;;;;;;-1.51;100.00;103456.09;5082860;28;20064;-86
2023/02/10 03:21:28;;;;;;;109.35;70.63;;;;;;;-1.53;100.00;103459.28;5081031;28;20021;-86
2023/02/10 03:23:53;;;;;;;110.55;71.82;;;;;;;-1.49;100.00;103464.91;5083753;28;20028;-87
2023/02/10 03:26:19;;;;;;;113.28;72.68;;;;;;;-1.55;100.00;103463.44;5081512;28;20064;-86
2023/02/10 03:28:44;;;;;;;111.75;72.28;;;;;;;-1.54;100.00;103473.97;5082316;28;20028;-86
2023/02/10 03:31:09;;;;;;;109.85;72.78;;;;;;;-1.56;100.00;103470.28;5082622;28;20512;-87
2023/02/10 03:33:35;;;;;;;108.90;70.82;;;;;;;-1.53;100.00;103467.06;5081375;28;20024;-86
2023/02/10 03:36:01;;;;;;;110.88;71.97;;;;;;;-1.54;100.00;103470.44;5083779;28;20055;-86
2023/02/10 03:38:28;;;;;;;111.53;71.57;;;;;;;-1.53;100.00;103475.78;5080243;28;20051;-86
2023/02/10 03:40:53;;;;;;;115.07;74.00;;;;;;;-1.55;100.00;103479.00;5083675;28;20036;-86
2023/02/10 03:43:20;;;;;;;113.15;71.97;;;;;;;-1.56;100.00;103477.16;5083765;28;20024;-86
2023/02/10 03:45:46;;;;;;;113.55;74.38;;;;;;;-1.56;100.00;103470.28;5086384;28;20090;-86
2023/02/10 03:48:12;;;;;;;113.43;74.15;;;;;;;-1.60;100.00;103471.69;5086469;28;20031;-78
2023/02/10 03:50:38;;;;;;;115.50;73.32;;;;;;;-1.69;100.00;103468.22;5084984;28;20498;-78
2023/02/10 03:53:03;;;;;;;116.45;73.60;;;;;;;-1.72;100.00;103464.41;5087035;28;20060;-79
2023/02/10 03:55:29;;;;;;;116.15;72.05;;;;;;;-1.76;100.00;103474.50;5084467;28;20026;-79
2023/02/10 03:57:55;;;;;;;116.00;73.50;;;;;;;-1.68;100.00;103483.00;5086157;28;20421;-78
2023/02/10 04:00:20;;;;;;;116.40;74.88;;;;;;;-1.66;100.00;103473.69;5084561;28;20047;-78
2023/02/10 04:02:46;;;;;;;124.95;76.00;;;;;;;-1.67;100.00;103483.94;5086345;28;20033;-78
2023/02/10 04:05:12;;;;;;;125.05;74.95;;;;;;;-1.69;100.00;103473.41;5085742;28;20128;-78
2023/02/10 04:07:37;;;;;;;119.95;74.38;;;;;;;-1.72;100.00;103478.28;5084700;28;20036;-76
2023/02/10 04:10:04;;;;;;;117.63;75.03;;;;;;;-1.69;100.00;103475.06;5085881;28;20046;-78
2023/02/10 04:12:30;;;;;;;124.40;77.35;;;;;;;-1.68;100.00;103476.91;5083684;28;20029;-78
2023/02/10 04:14:56;;;;;;;124.13;75.82;;;;;;;-1.71;100.00;103481.81;5087315;28;20032;-77
2023/02/10 04:17:21;;;;;;;126.03;77.88;;;;;;;-1.73;100.00;103475.53;5084145;28;20095;-78
2023/02/10 04:19:46;;;;;;;126.47;76.47;;;;;;;-1.82;100.00;103472.97;5085774;28;20032;-79
2023/02/10 04:22:12;;;;;;;127.55;77.68;;;;;;;-1.81;100.00;103480.00;5085848;28;20028;-76
2023/02/10 04:24:37;;;;;;;133.95;78.82;;;;;;;-1.79;100.00;103478.44;5084416;28;20387;-77
2023/02/10 04:27:03;;;;;;;131.93;78.53;;;;;;;-1.88;100.00;103465.50;5086672;28;20122;-90
2023/02/10 04:29:28;;;;;;;129.13;77.22;;;;;;;-1.84;100.00;103470.22;5083658;28;20035;-88
2023/02/10 04:31:54;;;;;;;136.35;80.25;;;;;;;-1.82;100.00;103478.16;5086551;28;20028;-88
2023/02/10 04:34:19;;;;;;;140.80;80.32;;;;;;;-1.71;100.00;103476.63;5084219;28;20386;-83
2023/02/10 04:36:44;;;;;;;161.50;85.05;;;;;;;-1.56;100.00;103477.16;5085670;28;20029;-89
2023/02/10 04:39:10;;;;;;;253.30;94.22;;;;;;;-1.39;100.00;103482.28;5085222;28;20127;-87
2023/02/10 04:41:35;;;;;;;354.85;105.57;;;;;;;-1.32;100.00;103483.78;5083807;28;20035;-88
2023/02/10 04:44:00;;;;;;;385.95;103.00;;;;;;;-1.30;100.00;103483.13;5085456;28;20032;-87
2023/02/10 04:46:26;;;;;;;447.63;107.75;;;;;;;-1.23;100.00;103484.66;5083267;28;20040;-88
2023/02/10 04:48:51;;;;;;;539.88;116.18;;;;;;;-1.18;100.00;103488.59;5085937;28;20039;-86
2023/02/10 04:51:16;;;;;;;609.40;120.10;;;;;;;-1.14;100.00;103490.69;5082994;28;20040;-89
2023/02/10 04:53:47;;;;;;;583.20;118.05;;;;;;;-1.11;100.00;103488.38;5083635;28;20489;-88
2023/02/10 04:56:13;;;;;;;487.48;110.25;;;;;;;-1.04;100.00;103486.38;5084713;28;20077;-80
2023/02/10 04:58:38;;;;;;;613.90;117.18;;;;;;;-1.01;100.00;103492.78;5084069;28;20383;-87
2023/02/10 05:01:04;;;;;;;660.75;124.82;;;;;;;-0.95;100.00;103492.44;5085764;28;20031;-87
2023/02/10 05:03:29;;;;;;;618.80;120.03;;;;;;;-0.92;100.00;103482.31;5082938;28;20094;-87
2023/02/10 05:05:54;;;;;;;571.33;110.88;;;;;;;-0.91;100.00;103479.88;5085957;28;20028;-88
2023/02/10 05:08:22;;;;;;;556.97;110.85;;;;;;;-0.80;100.00;103483.47;5083344;28;20115;-87
2023/02/10 05:10:48;;;;;;;564.38;112.97;;;;;;;-0.74;100.00;103491.84;5085097;28;20108;-85
2023/02/10 05:13:14;;;;;;;598.25;113.55;;;;;;;-0.69;100.00;103497.44;5083009;28;20024;-88
2023/02/10 05:15:39;;;;;;;656.58;121.70;;;;;;;-0.66;100.00;103507.22;5083482;28;20024;-88
2023/02/10 05:18:04;;;;;;;601.97;116.80;;;;;;;-0.60;100.00;103507.78;5085921;28;20119;-89
2023/02/10 05:20:30;;;;;;;644.95;118.47;;;;;;;-0.55;100.00;103506.53;5082258;28;20028;-89
2023/02/10 05:22:55;;;;;;;568.25;112.72;;;;;;;-0.51;100.00;103508.66;5086044;28;20044;-88
2023/02/10 05:25:20;;;;;;;681.45;121.90;;;;;;;-0.50;100.00;103500.06;5083266;28;20475;-86
2023/02/10 05:27:46;;;;;;;486.00;105.10;;;;;;;-0.45;100.00;103493.59;5084275;28;20147;-88
2023/02/10 05:30:12;;;;;;;577.70;115.65;;;;;;;-0.42;100.00;103487.78;5084200;28;20024;-79
2023/02/10 05:32:39;;;;;;;666.50;119.45;;;;;;;-0.39;100.00;103506.25;5083309;28;20032;-79
2023/02/10 05:35:04;;;;;;;619.10;118.93;;;;;;;-0.34;100.00;103501.47;5085133;28;20501;-79
2023/02/10 05:37:30;;;;;;;633.72;119.55;;;;;;;-0.32;100.00;103489.50;5082101;28;20032;-77
2023/02/10 05:39:55;;;;;;;666.00;121.20;;;;;;;-0.27;100.00;103498.66;5085381;28;20044;-77
2023/02/10 05:42:21;;;;;;;521.22;109.63;;;;;;;-0.23;100.00;103495.56;5082803;28;20165;-80
2023/02/10 05:44:46;;;;;;;563.38;114.65;;;;;;;-0.21;100.00;103505.31;5084171;28;20029;-79
2023/02/10 05:47:11;;;;;;;505.70;109.03;;;;;;;-0.22;100.00;103506.09;5083911;28;20122;-78
2023/02/10 05:49:37;;;;;;;639.67;124.25;;;;;;;-0.20;100.00;103507.16;5082508;28;20411;-78
2023/02/10 05:52:02;;;;;;;598.40;118.07;;;;;;;-0.19;100.00;103505.44;5085317;28;20081;-79
2023/02/10 05:54:28;;;;;;;519.03;105.53;;;;;;;-0.15;100.00;103502.34;5081847;28;20028;-78
2023/02/10 05:56:54;;;;;;;507.95;107.00;;;;;;;-0.13;100.00;103511.22;5085044;28;20382;-79
2023/02/10 05:59:19;;;;;;;497.40;107.50;;;;;;;-0.19;100.00;103497.66;5082767;28;20103;-77
2023/02/10 06:01:45;;;;;;;536.10;109.95;;;;;;;-0.18;100.00;103499.47;5083475;28;20151;-80
2023/02/10 06:04:10;;;;;;;546.83;106.70;;;;;;;-0.13;100.00;103502.50;5083768;28;20025;-78
2023/02/10 06:06:36;;;;;;;471.10;99.90;;;;;;;-0.16;100.00;103503.16;5081958;28;20119;-79
2023/02/10 06:09:01;;;;;;;524.17;109.13;;;;;;;-0.16;100.00;103512.63;5084941;28;20035;-79
2023/02/10 06:11:26;;;;;;;527.80;105.32;;;;;;;-0.17;100.00;103501.31;5081664;28;20033;-79
2023/02/10 06:13:52;;;;;;;509.70;101.70;;;;;;;-0.13;100.00;103507.69;5084422;28;20427;-78
2023/02/10 06:16:17;;;;;;;518.17;105.55;;;;;;;-0.15;100.00;103510.16;5072843;28;20051;-80
2023/02/10 06:18:42;;;;;;;481.33;98.97;;;;;;;-0.11;100.00;103509.66;5083080;28;20044;-87
2023/02/10 06:21:08;;;;;;;566.75;104.30;;;;;;;-0.10;100.00;103506.31;5050343;28;20029;-90
2023/02/10 06:23:34;;;;;;;484.25;99.05;;;;;;;-0.10;100.00;103519.31;5084477;28;20085;-89
2023/02/10 06:25:59;;;;;;;435.75;96.47;;;;;;;-0.06;100.00;103512.69;5081463;28;20082;-91
2023/02/10 06:28:26;;;;;;;541.85;105.05;;;;;;;-0.03;100.00;103502.53;5084393;28;20474;-89
2023/02/10 06:30:51;;;;;;;564.75;104.25;;;;;;;-0.04;100.00;103503.34;5081828;28;20395;-89
2023/02/10 06:33:17;;;;;;;600.30;106.40;;;;;;;-0.02;100.00;103502.69;5083386;28;20029;-90
2023/02/10 06:35:43;;;;;;;544.13;99.25;;;;;;;-0.01;100.00;103507.13;5083054;28;20110;-90
2023/02/10 06:38:08;;;;;;;492.63;95.72;;;;;;;0.05;100.00;103508.47;5082121;28;20080;-82
2023/02/10 06:40:33;;;;;;;525.15;99.28;;;;;;;0.06;100.00;103508.59;5087802;28;20051;-84
2023/02/10 06:43:00;;;;;;;471.15;97.80;;;;;;;0.09;100.00;103516.66;5092424;28;20035;-84
2023/02/10 06:45:27;;;;;;;442.08;92.38;;;;;;;0.13;100.00;103502.22;5091274;28;20059;-79
2023/02/10 06:47:52;;;;;;;545.13;100.90;;;;;;;0.17;100.00;103515.69;5092076;28;20067;-78
2023/02/10 06:50:18;;;;;;;503.42;98.78;;;;;;;0.22;100.00;103508.28;5091781;28;20458;-78
2023/02/10 06:52:43;;;;;;;454.58;93.22;;;;;;;0.22;100.00;103508.28;5091499;28;20085;-78
2023/02/10 06:55:09;;;;;;;570.63;103.95;;;;;;;0.23;100.00;103506.56;5093203;28;20099;-77
2023/02/10 06:57:35;;;;;;;541.35;102.18;;;;;;;0.24;100.00;103498.91;5090625;28;20165;-79
2023/02/10 07:00:03;;;;;;;531.13;99.13;;;;;;;0.30;100.00;103512.44;5090422;28;20440;-79
2023/02/10 07:02:29;;;;;;;407.02;89.80;;;;;;;0.38;100.00;103500.13;5091648;28;20040;-79
2023/02/10 07:04:54;;;;;;;462.05;94.18;;;;;;;0.42;100.00;103514.31;5090057;28;20027;-78
2023/02/10 07:07:20;;;;;;;417.65;90.65;;;;;;;0.46;100.00;103525.13;5089433;28;20532;-76
2023/02/10 07:09:45;;;;;;;490.88;101.30;;;;;;;0.47;100.00;103532.19;5091715;28;20032;-78
2023/02/10 07:12:14;;;;;;;374.30;85.78;;;;;;;0.48;100.00;103541.81;5091515;28;20064;-77
2023/02/10 07:14:39;;;;;;;381.70;85.05;;;;;;;0.52;100.00;103541.31;5089684;28;20032;-79
2023/02/10 07:17:04;;;;;;;385.88;90.03;;;;;;;0.55;100.00;103545.84;5092320;28;20145;-79
2023/02/10 07:19:31;;;;;;;434.55;91.65;;;;;;;0.57;100.00;103538.19;5095313;28;20118;-80
2023/02/10 07:21:57;;;;;;;415.70;86.18;;;;;;;0.57;100.00;103531.31;5095668;28;20032;-78
2023/02/10 07:24:23;;;;;;;390.83;85.63;;;;;;;0.63;100.00;103533.53;5096127;28;20024;-77
2023/02/10 07:26:48;;;;;;;438.63;88.82;;;;;;;0.63;100.00;103543.94;5095608;28;20078;-78
2023/02/10 07:29:13;;;;;;;406.33;83.78;;;;;;;0.67;100.00;103536.53;5096029;28;20074;-78
2023/02/10 07:31:39;;;;;;;394.38;82.75;;;;;;;0.69;100.00;103550.59;5094478;28;20028;-79
2023/02/10 07:34:04;;;;;;;373.95;78.40;;;;;;;0.72;100.00;103546.44;5094989;28;20390;-77
2023/02/10 07:36:30;;;;;;;383.33;76.10;;;;;;;0.75;100.00;103547.63;5095780;28;20028;-80
2023/02/10 07:38:55;;;;;;;423.35;84.70;;;;;;;0.78;100.00;103542.66;5093329;28;20052;-80
2023/02/10 07:41:20;;;;;;;355.30;73.35;;;;;;;0.81;100.00;103542.03;5094636;28;20036;-78
2023/02/10 07:43:46;;;;;;;351.90;80.32;;;;;;;0.86;100.00;103543.38;5095122;28;20335;-77
2023/02/10 07:46:11;;;;;;;344.95;75.80;;;;;;;0.89;100.00;103541.03;5095555;28;20075;-76
2023/02/10 07:48:37;;;;;;;340.27;73.63;;;;;;;0.93;100.00;103544.78;5095073;28;20036;-76
2023/02/10 07:51:02;;;;;;;289.77;66.43;;;;;;;0.98;100.00;103544.41;5094960;28;20039;-75
2023/02/10 07:53:28;;;;;;;278.75;69.55;;;;;;;0.96;100.00;103548.59;5095172;28;20066;-76
2023/02/10 07:55:53;;;;;;;292.65;73.07;;;;;;;0.97;100.00;103537.38;5094936;28;20390;-76
2023/02/10 07:58:18;;;;;;;279.45;68.75;;;;;;;1.02;100.00;103541.28;5095096;28;20079;-78
2023/02/10 08:00:44;;;;;;;292.10;72.97;;;;;;;1.04;100.00;103534.50;5094799;28;20397;-78
2023/02/10 08:03:13;;;;;;;286.15;68.57;;;;;;;1.06;100.00;103545.06;5094617;28;20068;-75
2023/02/10 08:05:39;;;;;;;259.00;69.38;;;;;;;1.11;100.00;103555.91;5094819;28;20497;-74
2023/02/10 08:08:04;;;;;;;251.63;66.35;;;;;;;1.16;100.00;103559.81;5094404;28;20103;-74
2023/02/10 08:10:30;;;;;;;269.33;70.03;;;;;;;1.16;100.00;103565.91;5094719;28;20390;-74
2023/02/10 08:12:55;;;;;;;247.25;70.68;;;;;;;1.17;100.00;103559.94;5094551;28;20028;-74
2023/02/10 08:15:22;;;;;;;254.93;71.75;;;;;;;1.19;100.00;103563.59;5093078;28;20040;-74
2023/02/10 08:17:48;;;;;;;248.07;70.25;;;;;;;1.21;100.00;103571.56;5094939;28;20033;-74
2023/02/10 08:20:13;;;;;;;237.80;67.22;;;;;;;1.21;100.00;103581.97;5094155;28;20032;-75
2023/02/10 08:22:38;;;;;;;237.38;66.78;;;;;;;1.24;100.00;103579.63;5093952;28;20391;-76
2023/02/10 08:25:04;;;;;;;232.50;65.60;;;;;;;1.27;100.00;103569.47;5095004;28;20067;-78
2023/02/10 08:27:29;;;;;;;214.20;66.82;;;;;;;1.25;100.00;103571.00;5094693;28;20493;-75
2023/02/10 08:29:55;;;;;;;224.27;67.18;;;;;;;1.22;100.00;103568.16;5093933;28;20035;-78
2023/02/10 08:32:21;;;;;;;220.45;62.90;;;;;;;1.23;100.00;103569.97;5093747;28;20020;-75
2023/02/10 08:34:50;;;;;;;210.35;64.50;;;;;;;1.20;100.00;103580.16;5087668;28;20032;-78
2023/02/10 08:37:17;;;;;;;223.50;65.00;;;;;;;1.20;100.00;103583.66;5085789;28;20029;-75
2023/02/10 08:39:42;;;;;;;213.45;61.78;;;;;;;1.21;100.00;103595.00;5084628;28;20052;-79
2023/02/10 08:42:08;;;;;;;227.90;63.60;;;;;;;1.22;100.00;103602.03;5084620;28;20398;-78
2023/02/10 08:44:33;;;;;;;224.77;65.10;;;;;;;1.24;100.00;103595.28;5085881;28;20463;-75
2023/02/10 08:46:59;;;;;;;212.82;62.80;;;;;;;1.33;100.00;103596.06;5083651;28;20059;-75
2023/02/10 08:49:24;;;;;;;204.02;60.40;;;;;;;1.38;100.00;103591.22;5086491;28;20461;-75
2023/02/10 08:51:53;;;;;;;201.82;61.70;;;;;;;1.35;100.00;103584.03;5083274;28;20032;-76
2023/02/10 08:54:18;;;;;;;189.88;58.60;;;;;;;1.38;100.00;103579.13;5085993;28;20056;-78
2023/02/10 08:56:44;;;;;;;203.10;63.17;;;;;;;1.29;100.00;103582.63;5084134;28;20536;-74
2023/02/10 08:59:10;;;;;;;210.85;63.50;;;;;;;1.35;100.00;103568.41;5084360;28;20123;-76
2023/02/10 09:01:35;;;;;;;204.27;61.95;;;;;;;1.41;100.00;103582.75;5085461;28;20024;-78
2023/02/10 09:04:01;;;;;;;215.50;63.13;;;;;;;1.45;100.00;103582.25;5083093;28;20028;-77
2023/02/10 09:06:40;;;;;;;187.02;61.10;;;;;;;1.48;100.00;103574.69;5086783;28;20081;-74
2023/02/10 09:09:22;;;;;;;195.73;62.28;;;;;;;1.59;100.00;103573.91;5083868;28;20485;-75
2023/02/10 09:11:47;;;;;;;195.30;64.05;;;;;;;1.72;100.00;103579.38;5083644;28;20435;-77
2023/02/10 09:14:13;;;;;;;208.27;68.25;;;;;;;1.85;100.00;103586.53;5084581;28;20044;-74
2023/02/10 09:16:38;;;;;;;189.32;63.35;;;;;;;1.86;100.00;103590.94;5084320;28;20025;-76
2023/02/10 09:19:04;;;;;;;169.95;58.05;;;;;;;1.77;100.00;103576.25;5083385;28;20040;-77
2023/02/10 09:21:30;;;;;;;171.50;58.65;;;;;;;1.71;100.00;103574.94;5085572;28;20028;-80
2023/02/10 09:23:55;;;;;;;164.43;58.80;;;;;;;1.73;100.00;103578.59;5082440;28;20112;-77
2023/02/10 09:26:20;;;;;;;155.88;56.20;;;;;;;1.85;100.00;103585.59;5085628;28;20059;-76
2023/02/10 09:28:46;;;;;;;163.30;58.60;;;;;;;2.08;100.00;103582.28;5083359;28;20032;-76
2023/02/10 09:31:13;;;;;;;146.35;55.63;;;;;;;2.14;100.00;103581.88;5084222;28;20032;-78
2023/02/10 09:33:38;;;;;;;135.05;50.95;;;;;;;2.11;100.00;103592.09;5084617;28;20389;-78
2023/02/10 09:36:10;;;;;;;130.45;51.08;;;;;;;2.08;100.00;103591.06;5082942;28;20103;-80
2023/02/10 09:38:35;;;;;;;131.43;52.05;;;;;;;2.23;100.00;103594.00;5084399;28;20483;-75
2023/02/10 09:41:04;;;;;;;120.15;50.70;;;;;;;2.31;100.00;103598.94;5081843;28;20024;-75
2023/02/10 09:43:35;;;;;;;117.57;49.20;;;;;;;2.40;100.00;103592.78;5085321;28;20031;-76
2023/02/10 09:46:12;;;;;;;107.43;47.95;;;;;;;2.32;100.00;103588.63;5082221;28;20079;-76
2023/02/10 09:48:40;;;;;;;102.00;44.13;;;;;;;2.36;100.00;103585.50;5084107;28;20378;-78
2023/02/10 09:51:20;;;;;;;103.95;45.63;;;;;;;2.54;100.00;103585.16;5082977;28;20032;-78
2023/02/10 09:53:46;;;;;;;99.30;45.60;;;;;;;2.71;100.00;103587.44;5082816;28;20023;-77
2023/02/10 09:56:20;;;;;;;99.22;46.15;;;;;;;2.99;100.00;103579.16;5082279;28;20466;-76
2023/02/10 09:58:53;;;;;;;96.80;44.92;;;;;;;2.99;100.00;103587.00;5082842;28;20379;-76
2023/02/10 10:01:29;;;;;;;93.28;43.22;;;;;;;3.01;100.00;103585.41;5084602;28;20020;-79
2023/02/10 10:04:01;;;;;;;87.03;41.67;;;;;;;3.28;100.00;103581.44;5080467;28;20032;-76
2023/02/10 10:06:33;;;;;;;85.80;42.95;;;;;;;3.51;100.00;103581.41;5082301;28;20032;-79
2023/02/10 10:09:07;;;;;;;75.70;40.03;;;;;;;3.48;100.00;103584.69;5083768;28;20073;-79
2023/02/10 10:11:53;;;;;;;83.45;42.03;;;;;;;3.41;100.00;103591.16;5081121;28;20103;-77
2023/02/10 10:14:28;;;;;;;79.43;41.40;;;;;;;3.77;100.00;103589.56;5082265;28;20036;-79
2023/02/10 10:17:01;;;;;;;80.47;41.17;;;;;;;4.05;100.00;103594.25;5082928;28;20463;-75
2023/02/10 10:19:46;;;;;;;77.57;40.88;;;;;;;4.47;100.00;103602.53;5083594;28;20043;-76
2023/02/10 10:22:19;;;;;;;70.50;39.10;;;;;;;4.75;100.00;103596.69;5082042;28;20386;-76
2023/02/10 10:25:03;;;;;;;70.63;39.10;;;;;;;4.78;100.00;103594.31;5083831;28;20024;-77
2023/02/10 10:27:50;;;;;;;69.68;40.13;;;;;;;4.74;100.00;103590.53;5082666;28;20646;-77
2023/02/10 10:30:28;;;;;;;70.28;40.08;;;;;;;5.08;100.00;103595.56;5082045;28;20032;-75
2023/02/10 10:33:02;;;;;;;62.25;36.33;;;;;;;5.49;100.00;103588.75;5082611;28;20098;-75
2023/02/10 10:35:38;;;;;;;63.45;38.08;;;;;;;5.99;100.00;103582.56;5083606;28;20075;-78
2023/02/10 10:38:19;;;;;;;60.60;36.85;;;;;;;6.49;100.00;103584.94;5080961;28;20045;-79
2023/02/10 10:40:47;;;;;;;61.97;37.55;;;;;;;6.68;100.00;103588.78;5081928;28;20028;-79
2023/02/10 10:43:20;;;;;;;59.63;36.58;;;;;;;6.85;100.00;103588.13;5082687;28;20035;-78
2023/02/10 10:45:53;;;;;;;56.45;35.85;;;;;;;7.23;100.00;103586.97;5081814;28;20027;-76
2023/02/10 10:48:26;;;;;;;55.35;35.80;;;;;;;7.75;100.00;103588.34;5083167;28;20024;-75
2023/02/10 10:50:55;;;;;;;53.17;34.63;;;;;;;8.15;100.00;103593.31;5082776;28;20039;-75
2023/02/10 10:53:38;;;;;;;54.55;34.40;;;;;;;7.92;100.00;103584.06;5082707;28;20024;-81
2023/02/10 10:56:17;;;;;;;54.95;35.67;;;;;;;7.23;100.00;103575.56;5084254;28;20024;-84
2023/02/10 10:58:44;;;;;;;55.00;35.33;;;;;;;7.65;100.00;103577.25;5081306;28;20057;-85
2023/02/10 11:01:10;;;;;;;56.08;35.67;;;;;;;8.41;100.00;103567.56;5084431;28;20020;-79